Aérodrome :
LOGIN :

S'inscrire | Disclaimer

   EN    FR    IT 

 










Légende :    VFR   VFR Marginal   IFR   IFR Intensif   IFR Très Intensif
Visi : 
Plafond : 
>= 8 km
>= 3000ft
5 à 8 km
1000 à 3000 ft
1500m à 5 km
500 à 1000 ft
800 à 1500m
200 à 500 ft
< 800m
< 200 ft
Symboles :   Orages  Brouillard  Fortes neiges  Fortes précipitations  Vent > 20 kt
SIGMETs :   Divers  Orages  Givrage  Turbulence  Onde Orograph.  Cendres Volcan.







- Altitude de l'aérodrome : 995 ft
- Code IATA : KTW


EPKT - Katowice

DERNIER METAR :
  • 181800Z 19005KT 160V220 7000 NSC 06/M02 Q1020

METARs EXPIRÉS :
  • 181730Z 17003KT 7000 NSC 06/M01 Q1020
  • 181700Z 16003KT 8000 NSC 05/M02 Q1020
  • 181630Z 17003KT 9000 NSC 08/M01 Q1020
  • 181600Z 19003KT 140V200 CAVOK 09/M02 Q1020
  • 181530Z 20004KT CAVOK 12/M01 Q1020

TAF TAF EPKT
Valide du 18 à 18h jusqu'au 19 à 18h UTC


181730Z 1818/1918 16003KT 8000 NSC
BECMG 1906/1909 24010KT
Pas de NOTAMs connus pour ce terrain.



MET'MAP, la Météo Aéronautique d'un coup d'oeil ! - Copyright ORBIFLY Décembre 2007 - Disclaimer

ORBIFLY MET'MAP TEAM :

Programmation & Développement : Alexandra Zaïnal
Conception & Développement : Baudouin d'Aumeries
Co-Programmation & Développement : Marc-Olivier Méhu
Soutien technique & logistique : Manuel Goepfert

Contact : metmap@orbifly.com




SOURCES & CREDITS :

   NOAA